createdAt,value
2023-05-14T00:01:01.085Z,11.35
2023-05-14T00:03:29.002Z,11.33
2023-05-14T00:05:56.929Z,11.33
2023-05-14T00:08:24.811Z,11.37
2023-05-14T00:10:53.335Z,11.37
2023-05-14T00:13:21.152Z,11.33
2023-05-14T00:15:49.038Z,11.31
2023-05-14T00:18:18.254Z,11.35
2023-05-14T00:20:46.189Z,11.36
2023-05-14T00:23:14.056Z,11.34
2023-05-14T00:25:41.949Z,11.34
2023-05-14T00:28:09.860Z,11.35
2023-05-14T00:30:37.709Z,11.36
2023-05-14T00:33:05.588Z,11.35
2023-05-14T00:35:35.344Z,11.33
2023-05-14T00:38:03.170Z,11.33
2023-05-14T00:40:31.181Z,11.33
2023-05-14T00:42:59.050Z,11.31
2023-05-14T00:45:27.073Z,11.29
2023-05-14T00:47:55.571Z,11.30
2023-05-14T00:50:24.105Z,11.25
2023-05-14T00:52:53.869Z,11.25
2023-05-14T00:55:22.797Z,11.19
2023-05-14T00:57:51.969Z,11.21
2023-05-14T01:00:20.230Z,11.22
2023-05-14T01:02:48.239Z,11.19
2023-05-14T01:05:16.431Z,11.19
2023-05-14T01:07:55.463Z,11.22
2023-05-14T01:10:30.032Z,11.18
2023-05-14T01:13:05.129Z,11.17
2023-05-14T01:15:34.496Z,11.15
2023-05-14T01:18:05.614Z,11.16
2023-05-14T01:20:33.665Z,11.16
2023-05-14T01:23:02.924Z,11.19
2023-05-14T01:25:32.266Z,11.16
2023-05-14T01:28:07.559Z,11.15
2023-05-14T01:30:38.474Z,11.13
2023-05-14T01:33:12.022Z,11.16
2023-05-14T01:35:41.074Z,11.16
2023-05-14T01:38:12.557Z,11.14
2023-05-14T01:40:41.219Z,11.11
2023-05-14T01:43:09.532Z,11.10
2023-05-14T01:45:38.120Z,11.10
2023-05-14T01:48:06.584Z,11.07
2023-05-14T01:50:34.602Z,11.07
2023-05-14T01:53:02.508Z,11.08
2023-05-14T01:55:31.796Z,11.07
2023-05-14T01:57:59.858Z,11.06
2023-05-14T02:00:28.246Z,11.07
2023-05-14T02:02:56.183Z,11.07
2023-05-14T02:05:24.561Z,11.08
2023-05-14T02:07:54.868Z,11.04
2023-05-14T02:10:22.946Z,11.03
2023-05-14T02:12:52.332Z,11.03
2023-05-14T02:15:20.152Z,10.92
2023-05-14T02:17:48.514Z,10.91
2023-05-14T02:20:16.564Z,10.86
2023-05-14T02:22:46.113Z,10.86
2023-05-14T02:25:14.108Z,10.75
2023-05-14T02:27:41.991Z,10.76
2023-05-14T02:30:12.644Z,10.70
2023-05-14T02:32:40.616Z,10.73
2023-05-14T02:35:09.485Z,10.55
2023-05-14T02:37:38.368Z,10.63
2023-05-14T02:40:08.041Z,10.57
2023-05-14T02:42:36.044Z,10.52
2023-05-14T02:45:03.915Z,10.46
2023-05-14T02:47:33.178Z,10.49
2023-05-14T02:50:01.001Z,10.51
2023-05-14T02:52:28.822Z,10.47
2023-05-14T02:54:56.713Z,10.50
2023-05-14T02:57:24.745Z,10.43
2023-05-14T02:59:52.563Z,10.46
2023-05-14T03:02:21.344Z,10.45
2023-05-14T03:04:51.514Z,10.45
2023-05-14T03:07:19.308Z,10.44
2023-05-14T03:09:47.164Z,10.43
2023-05-14T03:12:15.147Z,10.41
2023-05-14T03:14:43.004Z,10.43
2023-05-14T03:17:11.577Z,10.40
2023-05-14T03:19:40.568Z,10.39
2023-05-14T03:22:09.990Z,10.42
2023-05-14T03:24:40.297Z,10.41
2023-05-14T03:27:08.237Z,10.40
2023-05-14T03:29:36.214Z,10.39
2023-05-14T03:32:04.549Z,10.41
2023-05-14T03:34:32.421Z,10.40
2023-05-14T03:37:00.276Z,10.42
2023-05-14T03:39:29.470Z,10.42
2023-05-14T03:41:58.913Z,10.41
2023-05-14T03:44:26.996Z,10.40
2023-05-14T03:46:54.824Z,10.41
2023-05-14T03:49:23.117Z,10.38
2023-05-14T03:51:51.686Z,10.34
2023-05-14T03:54:19.646Z,10.33
2023-05-14T03:56:48.995Z,10.35
2023-05-14T03:59:16.861Z,10.33
2023-05-14T04:01:45.503Z,10.38
2023-05-14T04:04:13.449Z,10.37
2023-05-14T04:06:41.411Z,10.35
2023-05-14T04:09:10.874Z,10.35
2023-05-14T04:11:38.799Z,10.33
2023-05-14T04:14:08.398Z,10.36
2023-05-14T04:16:36.364Z,10.36
2023-05-14T04:19:04.947Z,10.39
2023-05-14T04:21:32.931Z,10.40
2023-05-14T04:24:00.784Z,10.35
2023-05-14T04:26:28.598Z,10.35
2023-05-14T04:28:56.582Z,10.41
2023-05-14T04:31:26.090Z,10.38
2023-05-14T04:33:54.054Z,10.38
2023-05-14T04:36:21.994Z,10.39
2023-05-14T04:38:49.910Z,10.39
2023-05-14T04:41:17.711Z,10.38
2023-05-14T04:43:46.177Z,10.37
2023-05-14T04:46:14.136Z,10.29
2023-05-14T04:48:43.495Z,10.21
2023-05-14T04:51:11.560Z,10.28
2023-05-14T04:53:39.508Z,10.29
2023-05-14T04:56:07.810Z,10.24
2023-05-14T04:58:35.659Z,10.24
2023-05-14T05:01:07.396Z,10.26
2023-05-14T05:03:35.406Z,10.20
2023-05-14T05:06:04.957Z,10.18
2023-05-14T05:08:32.866Z,10.16
2023-05-14T05:11:00.771Z,10.18
2023-05-14T05:13:28.567Z,10.20
2023-05-14T05:15:56.508Z,10.23
2023-05-14T05:18:24.530Z,10.18
2023-05-14T05:20:52.477Z,10.21
2023-05-14T05:23:21.951Z,10.24
2023-05-14T05:25:50.501Z,10.27
2023-05-14T05:28:18.435Z,10.23
2023-05-14T05:30:46.312Z,10.29
2023-05-14T05:33:15.382Z,10.25
2023-05-14T05:35:44.546Z,10.19
2023-05-14T05:38:12.438Z,10.26
2023-05-14T05:40:41.698Z,10.18
2023-05-14T05:43:09.563Z,10.25
2023-05-14T05:45:37.387Z,10.29
2023-05-14T05:48:05.751Z,10.16
2023-05-14T05:50:33.591Z,10.19
2023-05-14T05:53:01.565Z,10.28
2023-05-14T05:55:30.312Z,10.25
2023-05-14T05:58:00.881Z,10.22
2023-05-14T06:00:28.878Z,10.21
2023-05-14T06:02:56.969Z,10.24
2023-05-14T06:05:24.954Z,10.24
2023-05-14T06:07:53.403Z,10.25
2023-05-14T06:10:21.460Z,10.26
2023-05-14T06:12:49.299Z,10.27
2023-05-14T06:15:19.415Z,10.29
2023-05-14T06:17:47.459Z,10.27
2023-05-14T06:20:15.451Z,10.31
2023-05-14T06:22:43.386Z,10.36
2023-05-14T06:25:12.332Z,10.35
2023-05-14T06:27:40.222Z,10.41
2023-05-14T06:30:09.185Z,10.41
2023-05-14T06:32:38.666Z,10.42
2023-05-14T06:35:07.614Z,10.50
2023-05-14T06:37:35.714Z,10.56
2023-05-14T06:40:03.856Z,10.61
2023-05-14T06:42:31.810Z,10.60
2023-05-14T06:44:59.915Z,10.69
2023-05-14T06:47:28.099Z,10.75
2023-05-14T06:49:58.908Z,10.80
2023-05-14T06:52:27.441Z,10.77
2023-05-14T06:54:55.259Z,10.78
2023-05-14T06:57:23.829Z,10.85
2023-05-14T06:59:51.961Z,10.89
2023-05-14T07:02:19.890Z,10.87
2023-05-14T07:04:48.129Z,10.89
2023-05-14T07:07:20.671Z,10.96
2023-05-14T07:09:48.798Z,11.00
2023-05-14T07:12:16.769Z,10.96
2023-05-14T07:14:44.687Z,11.08
2023-05-14T07:17:12.719Z,11.05
2023-05-14T07:19:40.950Z,11.03
2023-05-14T07:22:08.749Z,11.12
2023-05-14T07:24:37.950Z,11.17
2023-05-14T07:27:06.468Z,11.22
2023-05-14T07:29:35.065Z,11.27
2023-05-14T07:32:02.923Z,11.22
2023-05-14T07:34:30.871Z,11.22
2023-05-14T07:36:58.827Z,11.26
2023-05-14T07:39:26.620Z,11.27
2023-05-14T07:41:55.899Z,11.43
2023-05-14T07:44:23.746Z,11.42
2023-05-14T07:46:51.696Z,11.54
2023-05-14T07:49:19.535Z,11.52
2023-05-14T07:51:47.369Z,11.67
2023-05-14T07:54:15.174Z,11.73
2023-05-14T07:56:42.997Z,11.83
2023-05-14T07:59:12.245Z,11.83
2023-05-14T08:01:40.122Z,11.88
2023-05-14T08:04:08.146Z,11.95
2023-05-14T08:06:36.099Z,11.96
2023-05-14T08:09:05.374Z,11.98
2023-05-14T08:11:33.221Z,12.04
2023-05-14T08:14:01.063Z,12.05
2023-05-14T08:16:30.274Z,12.17
2023-05-14T08:18:58.345Z,12.19
2023-05-14T08:21:26.329Z,12.24
2023-05-14T08:23:54.370Z,12.32
2023-05-14T08:26:22.922Z,12.44
2023-05-14T08:28:50.923Z,12.59
2023-05-14T08:31:18.940Z,12.66
2023-05-14T08:33:48.276Z,12.63
2023-05-14T08:36:16.362Z,12.79
2023-05-14T08:38:45.382Z,13.00
2023-05-14T08:41:16.156Z,13.13
2023-05-14T08:43:50.264Z,13.14
2023-05-14T08:46:19.084Z,13.21
2023-05-14T08:48:52.886Z,13.28
2023-05-14T08:51:21.007Z,13.19
2023-05-14T08:53:49.154Z,13.18
2023-05-14T08:56:20.203Z,13.19
2023-05-14T08:58:48.176Z,13.10
2023-05-14T09:01:16.107Z,13.23
2023-05-14T09:03:45.302Z,13.19
2023-05-14T09:06:16.782Z,13.25
2023-05-14T09:08:45.103Z,13.25
2023-05-14T09:11:13.526Z,13.51
2023-05-14T09:13:41.540Z,13.61
2023-05-14T09:16:09.513Z,13.72
2023-05-14T09:18:38.183Z,13.74
2023-05-14T09:21:06.377Z,13.83
2023-05-14T09:23:35.772Z,13.87
2023-05-14T09:26:06.601Z,13.87
2023-05-14T09:28:34.571Z,13.89
2023-05-14T09:31:03.937Z,13.97
2023-05-14T09:33:32.924Z,14.07
2023-05-14T09:36:01.468Z,14.16
2023-05-14T09:38:30.770Z,14.19
2023-05-14T09:41:00.845Z,14.14
2023-05-14T09:43:28.819Z,14.03
2023-05-14T09:45:56.823Z,14.00
2023-05-14T09:48:24.865Z,14.04
2023-05-14T09:50:52.945Z,14.02
2023-05-14T09:53:21.043Z,13.96
2023-05-14T09:55:49.324Z,14.00
2023-05-14T09:58:18.978Z,14.09
2023-05-14T10:00:48.298Z,14.14
2023-05-14T10:03:19.614Z,14.12
2023-05-14T10:05:50.984Z,14.21
2023-05-14T10:08:25.407Z,14.15
2023-05-14T10:10:55.686Z,14.25
2023-05-14T10:13:28.977Z,14.40
2023-05-14T10:16:02.361Z,14.46
2023-05-14T10:18:32.879Z,14.47
2023-05-14T10:21:06.783Z,14.45
2023-05-14T10:23:37.773Z,14.63
2023-05-14T10:26:06.932Z,14.66
2023-05-14T10:28:36.770Z,14.64
2023-05-14T10:31:04.863Z,14.67
2023-05-14T10:33:48.141Z,14.67
2023-05-14T10:36:16.133Z,14.65
2023-05-14T10:38:44.309Z,14.66
2023-05-14T10:41:15.073Z,14.80
2023-05-14T10:43:44.976Z,14.68
2023-05-14T10:46:15.162Z,14.84
2023-05-14T10:48:45.312Z,14.72
2023-05-14T10:51:14.038Z,14.80
2023-05-14T10:53:43.529Z,14.82
2023-05-14T10:56:12.861Z,14.82
2023-05-14T10:58:43.359Z,14.85
2023-05-14T11:01:14.176Z,14.86
2023-05-14T11:03:45.069Z,14.71
2023-05-14T11:06:16.143Z,14.85
2023-05-14T11:08:46.552Z,14.84
2023-05-14T11:11:15.189Z,14.92
2023-05-14T11:13:43.992Z,14.97
2023-05-14T11:16:23.469Z,15.16
2023-05-14T11:19:02.853Z,15.27
2023-05-14T11:21:31.832Z,15.23
2023-05-14T11:24:01.482Z,15.17
2023-05-14T11:26:29.598Z,15.19
2023-05-14T11:28:57.852Z,15.18
2023-05-14T11:31:27.847Z,15.19
2023-05-14T11:33:56.476Z,15.29
2023-05-14T11:36:24.500Z,15.52
2023-05-14T11:38:52.851Z,15.69
2023-05-14T11:41:23.075Z,15.53
2023-05-14T11:43:51.541Z,15.42
2023-05-14T11:46:19.973Z,15.40
2023-05-14T11:48:49.523Z,15.29
2023-05-14T11:51:17.567Z,15.40
2023-05-14T11:53:46.748Z,15.40
2023-05-14T11:56:14.828Z,15.36
2023-05-14T11:58:48.514Z,15.42
2023-05-14T12:01:16.862Z,15.42
2023-05-14T12:03:44.878Z,15.33
2023-05-14T12:06:14.336Z,15.35
2023-05-14T12:08:42.373Z,15.33
2023-05-14T12:11:10.560Z,15.21
2023-05-14T12:13:38.534Z,15.28
2023-05-14T12:16:07.385Z,15.28
2023-05-14T12:18:35.650Z,15.30
2023-05-14T12:21:05.094Z,15.36
2023-05-14T12:23:34.583Z,15.57
2023-05-14T12:26:03.648Z,15.58
2023-05-14T12:28:32.336Z,15.51
2023-05-14T12:31:00.928Z,15.63
2023-05-14T12:33:29.071Z,15.55
2023-05-14T12:36:07.411Z,15.48
2023-05-14T12:38:49.938Z,15.60
2023-05-14T12:41:18.486Z,15.69
2023-05-14T12:43:49.884Z,15.95
2023-05-14T12:46:18.182Z,15.90
2023-05-14T12:48:46.447Z,15.98
2023-05-14T12:51:14.540Z,15.87
2023-05-14T12:53:42.876Z,15.82
2023-05-14T12:56:12.727Z,15.80
2023-05-14T12:58:41.092Z,15.81
2023-05-14T13:01:09.136Z,15.80
2023-05-14T13:03:37.162Z,15.80
2023-05-14T13:06:05.413Z,15.82
2023-05-14T13:08:33.440Z,15.93
2023-05-14T13:11:01.463Z,15.77
2023-05-14T13:13:30.845Z,15.90
2023-05-14T13:15:58.879Z,15.73
2023-05-14T13:18:27.293Z,15.50
2023-05-14T13:20:55.322Z,15.46
2023-05-14T13:23:23.403Z,15.42
2023-05-14T13:25:51.547Z,15.49
2023-05-14T13:28:19.364Z,15.49
2023-05-14T13:31:09.045Z,15.67
2023-05-14T13:33:37.779Z,15.69
2023-05-14T13:36:06.377Z,15.72
2023-05-14T13:38:34.227Z,15.69
2023-05-14T13:41:03.008Z,15.71
2023-05-14T13:43:31.784Z,15.78
2023-05-14T13:46:01.794Z,15.64
2023-05-14T13:48:31.007Z,15.55
2023-05-14T13:50:59.283Z,15.63
2023-05-14T13:53:27.924Z,15.64
2023-05-14T13:55:58.349Z,15.67
2023-05-14T13:58:27.575Z,15.61
2023-05-14T14:00:56.648Z,15.53
2023-05-14T14:03:25.888Z,15.64
2023-05-14T14:05:53.738Z,15.63
2023-05-14T14:08:23.895Z,15.62
2023-05-14T14:10:54.444Z,15.64
2023-05-14T14:13:22.769Z,15.68
2023-05-14T14:15:51.282Z,15.57
2023-05-14T14:18:19.192Z,15.65
2023-05-14T14:20:48.589Z,15.68
2023-05-14T14:23:16.506Z,15.61
2023-05-14T14:25:44.420Z,15.69
2023-05-14T14:28:12.314Z,15.72
2023-05-14T14:30:40.265Z,15.80
2023-05-14T14:33:08.290Z,15.94
2023-05-14T14:35:37.374Z,15.98
2023-05-14T14:38:06.657Z,15.97
2023-05-14T14:40:34.768Z,16.02
2023-05-14T14:43:03.078Z,16.10
2023-05-14T14:45:31.143Z,16.09
2023-05-14T14:48:23.558Z,16.16
2023-05-14T14:50:51.929Z,16.30
2023-05-14T14:53:21.273Z,16.21
2023-05-14T14:55:49.340Z,16.23
2023-05-14T14:58:17.723Z,16.28
2023-05-14T15:00:45.706Z,16.27
2023-05-14T15:03:15.054Z,16.18
2023-05-14T15:05:43.517Z,16.17
2023-05-14T15:08:11.509Z,16.21
2023-05-14T15:10:41.593Z,16.08
2023-05-14T15:13:11.129Z,16.29
2023-05-14T15:15:39.034Z,16.36
2023-05-14T15:18:07.048Z,16.35
2023-05-14T15:20:35.010Z,16.45
2023-05-14T15:23:03.213Z,16.49
2023-05-14T15:25:31.633Z,16.58
2023-05-14T15:28:00.824Z,16.64
2023-05-14T15:30:28.745Z,16.45
2023-05-14T15:32:56.790Z,16.67
2023-05-14T15:35:25.172Z,16.76
2023-05-14T15:37:56.502Z,16.79
2023-05-14T15:40:24.618Z,16.76
2023-05-14T15:42:52.689Z,16.80
2023-05-14T15:45:22.200Z,16.95
2023-05-14T15:47:50.083Z,16.97
2023-05-14T15:50:18.018Z,16.84
2023-05-14T15:52:46.310Z,16.75
2023-05-14T15:55:14.167Z,16.77
2023-05-14T15:57:42.042Z,16.74
2023-05-14T16:00:11.125Z,16.80
2023-05-14T16:02:40.853Z,16.93
2023-05-14T16:05:09.457Z,17.02
2023-05-14T16:07:37.640Z,16.98
2023-05-14T16:10:06.545Z,16.92
2023-05-14T16:12:34.516Z,16.92
2023-05-14T16:15:02.475Z,16.89
2023-05-14T16:17:31.766Z,16.90
2023-05-14T16:20:01.995Z,16.91
2023-05-14T16:22:31.927Z,17.05
2023-05-14T16:25:02.584Z,17.06
2023-05-14T16:27:31.401Z,17.05
2023-05-14T16:29:59.336Z,16.89
2023-05-14T16:32:27.707Z,16.95
2023-05-14T16:34:56.487Z,16.89
2023-05-14T16:37:25.817Z,16.81
2023-05-14T16:39:53.664Z,16.79
2023-05-14T16:42:21.578Z,16.72
2023-05-14T16:44:49.444Z,16.57
2023-05-14T16:47:17.324Z,16.55
2023-05-14T16:49:45.338Z,16.49
2023-05-14T16:52:13.470Z,16.50
2023-05-14T16:54:42.708Z,16.56
2023-05-14T16:57:10.602Z,16.33
2023-05-14T16:59:38.411Z,16.21
2023-05-14T17:02:06.307Z,16.11
2023-05-14T17:04:38.690Z,16.09
2023-05-14T17:07:06.840Z,15.99
2023-05-14T17:09:34.671Z,16.01
2023-05-14T17:12:04.193Z,15.91
2023-05-14T17:14:32.110Z,15.88
2023-05-14T17:16:59.989Z,15.87
2023-05-14T17:19:27.943Z,15.91
2023-05-14T17:21:55.839Z,15.85
2023-05-14T17:24:23.819Z,15.80
2023-05-14T17:26:51.793Z,15.79
2023-05-14T17:29:21.341Z,15.71
2023-05-14T17:31:49.278Z,15.67
2023-05-14T17:34:17.729Z,15.61
2023-05-14T17:36:47.125Z,15.55
2023-05-14T17:39:14.969Z,15.52
2023-05-14T17:41:43.147Z,15.48
2023-05-14T17:44:12.888Z,15.38
2023-05-14T17:46:44.760Z,15.37
2023-05-14T17:49:12.966Z,15.37
2023-05-14T17:51:41.006Z,15.33
2023-05-14T17:54:09.087Z,15.33
2023-05-14T17:56:37.178Z,15.27
2023-05-14T17:59:05.053Z,15.19
2023-05-14T18:01:33.032Z,15.13
2023-05-14T18:04:02.546Z,15.13
2023-05-14T18:06:30.938Z,15.01
2023-05-14T18:08:58.780Z,15.01
2023-05-14T18:11:32.747Z,14.99
2023-05-14T18:14:00.721Z,14.93
2023-05-14T18:16:29.006Z,14.90
2023-05-14T18:18:57.218Z,14.86
2023-05-14T18:21:26.461Z,14.86
2023-05-14T18:23:54.358Z,14.78
2023-05-14T18:26:23.166Z,14.73
2023-05-14T18:28:51.092Z,14.68
2023-05-14T18:31:19.125Z,14.65
2023-05-14T18:33:47.200Z,14.60
2023-05-14T18:36:15.076Z,14.58
2023-05-14T18:38:44.298Z,14.53
2023-05-14T18:41:12.218Z,14.45
2023-05-14T18:43:40.079Z,14.39
2023-05-14T18:46:08.107Z,14.34
2023-05-14T18:48:36.398Z,14.27
2023-05-14T18:51:05.370Z,14.21
2023-05-14T18:53:33.318Z,14.13
2023-05-14T18:56:02.616Z,14.09
2023-05-14T18:58:30.499Z,13.96
2023-05-14T19:00:59.053Z,13.87
2023-05-14T19:03:27.107Z,13.82
2023-05-14T19:05:55.080Z,13.77
2023-05-14T19:08:22.973Z,13.70
2023-05-14T19:10:50.941Z,13.65
2023-05-14T19:13:20.289Z,13.57
2023-05-14T19:15:48.695Z,13.50
2023-05-14T19:18:17.682Z,13.47
2023-05-14T19:20:46.602Z,13.44
2023-05-14T19:23:14.498Z,13.37
2023-05-14T19:25:42.432Z,13.27
2023-05-14T19:28:10.457Z,13.21
2023-05-14T19:30:39.690Z,13.09
2023-05-14T19:33:07.534Z,13.06
2023-05-14T19:35:35.525Z,12.97
2023-05-14T19:38:03.409Z,12.83
2023-05-14T19:40:31.358Z,12.79
2023-05-14T19:42:59.464Z,12.77
2023-05-14T19:45:27.469Z,12.75
2023-05-14T19:47:56.983Z,12.67
2023-05-14T19:50:24.931Z,12.60
2023-05-14T19:52:52.847Z,12.57
2023-05-14T19:55:20.711Z,12.50
2023-05-14T19:57:48.589Z,12.45
2023-05-14T20:00:17.033Z,12.39
2023-05-14T20:02:47.773Z,12.33
2023-05-14T20:05:17.360Z,12.30
2023-05-14T20:07:47.114Z,12.21
2023-05-14T20:10:15.607Z,12.15
2023-05-14T20:12:43.564Z,12.12
2023-05-14T20:15:12.055Z,12.09
2023-05-14T20:17:39.959Z,12.07
2023-05-14T20:20:09.965Z,12.03
2023-05-14T20:22:40.027Z,11.97
2023-05-14T20:25:08.930Z,11.92
2023-05-14T20:27:37.115Z,11.89
2023-05-14T20:30:06.671Z,11.87
2023-05-14T20:32:34.627Z,11.82
2023-05-14T20:35:02.917Z,11.77
2023-05-14T20:37:32.382Z,11.73
2023-05-14T20:40:02.339Z,11.68
2023-05-14T20:42:30.281Z,11.66
2023-05-14T20:44:58.142Z,11.61
2023-05-14T20:47:28.952Z,11.53
2023-05-14T20:49:56.917Z,11.51
2023-05-14T20:52:24.830Z,11.46
2023-05-14T20:54:52.784Z,11.44
2023-05-14T20:57:22.558Z,11.38
2023-05-14T20:59:50.465Z,11.37
2023-05-14T21:02:18.532Z,11.31
2023-05-14T21:04:46.937Z,11.26
2023-05-14T21:07:14.768Z,11.22
2023-05-14T21:09:43.936Z,11.16
2023-05-14T21:12:12.037Z,11.14
2023-05-14T21:14:42.754Z,11.08
2023-05-14T21:17:10.638Z,11.05
2023-05-14T21:19:38.452Z,10.99
2023-05-14T21:22:07.406Z,10.93
2023-05-14T21:24:35.401Z,10.95
2023-05-14T21:27:03.340Z,10.89
2023-05-14T21:29:31.251Z,10.85
2023-05-14T21:32:00.631Z,10.83
2023-05-14T21:34:29.794Z,10.82
2023-05-14T21:36:59.206Z,10.77
2023-05-14T21:39:27.068Z,10.75
2023-05-14T21:41:54.989Z,10.67
2023-05-14T21:44:23.033Z,10.66
2023-05-14T21:46:50.905Z,10.63
2023-05-14T21:49:20.131Z,10.61
2023-05-14T21:51:52.830Z,10.62
2023-05-14T21:54:20.934Z,10.57
2023-05-14T21:56:49.146Z,10.47
2023-05-14T21:59:17.480Z,10.45
2023-05-14T22:02:05.316Z,10.44
2023-05-14T22:04:35.261Z,10.43
2023-05-14T22:07:04.048Z,10.38
2023-05-14T22:09:32.059Z,10.39
2023-05-14T22:12:00.803Z,10.37
2023-05-14T22:14:28.785Z,10.31
2023-05-14T22:16:57.728Z,10.28
2023-05-14T22:19:26.820Z,10.18
2023-05-14T22:21:56.107Z,10.16
2023-05-14T22:24:24.015Z,10.14
2023-05-14T22:26:51.970Z,10.13
2023-05-14T22:29:19.797Z,10.07
2023-05-14T22:31:47.765Z,10.07
2023-05-14T22:34:16.077Z,10.05
2023-05-14T22:36:44.028Z,10.01
2023-05-14T22:39:13.561Z,9.95
2023-05-14T22:41:41.659Z,9.88
2023-05-14T22:44:09.755Z,9.85
2023-05-14T22:46:38.130Z,9.82
2023-05-14T22:49:06.036Z,9.82
2023-05-14T22:51:33.913Z,9.78
2023-05-14T22:54:01.739Z,9.79
2023-05-14T22:56:31.137Z,9.73
2023-05-14T22:59:00.233Z,9.68
2023-05-14T23:01:28.459Z,9.68
2023-05-14T23:03:56.585Z,9.70
2023-05-14T23:06:25.562Z,9.68
2023-05-14T23:08:53.438Z,9.63
2023-05-14T23:11:21.377Z,9.61
2023-05-14T23:13:50.604Z,9.58
2023-05-14T23:16:18.663Z,9.59
2023-05-14T23:18:46.772Z,9.65
2023-05-14T23:21:15.036Z,9.60
2023-05-14T23:23:42.962Z,9.59
2023-05-14T23:26:10.870Z,9.51
2023-05-14T23:28:38.739Z,9.53
2023-05-14T23:31:08.185Z,9.46
2023-05-14T23:33:36.140Z,9.49
2023-05-14T23:36:05.096Z,9.44
2023-05-14T23:38:33.172Z,9.47
2023-05-14T23:41:01.127Z,9.45
2023-05-14T23:43:28.966Z,9.44
2023-05-14T23:45:57.101Z,9.39
2023-05-14T23:48:26.697Z,9.34
2023-05-14T23:50:54.750Z,9.34
2023-05-14T23:53:22.576Z,9.32
2023-05-14T23:55:50.540Z,9.29
2023-05-14T23:58:18.467Z,9.26
